aviador You're here:

PHHI Decoded Metar

WHEELER AFB. in HI, USA OAHU ISL.
Report Time2017-07-21 07:58:00
UTC Time2017-07-21 08:43:38
Flight Rules vfr VFR
WindCalm
Visibility9999 m
Phenomena:N/A
Clouds:Scattered 029 Hf
Expected CloudBase > 2,400 ft AGL from Temp-Dew spread
CeilingNone
Temp24°C (ISA +11)
Dew Point18°C (69% RH)
QNH1019 hPa
Density Alt2,149 ft
Elevation837 ft
Report Wrong Elevation
Raw Report
PHHI 210758Z AUTO 00000KT 10SM SCT029 24/18 A3008 RMK AO2
SLP175=

Extra information for PHHI:More info

Metar Taf Metar & Taf Last 4 Metars F.Rules Stats Wind Profile Meteogram Temp Stats Airport Information Weather charts Add Link Nearby VenuesMetar ALERT Operation Metar Decoded Social comments